Terminal Aerodrome Forecast
Issued by NWS

Home | Current Version | Previous Version | Text Only | Print | Product List | Glossary On
Versions: 1 2 3 4 5 6 7 8 9 10 11 12 13 14 15 16 17 18 19 20
000
FTUS45 KSLC 260648 AAA
TAFBCE
TAF AMD
KBCE 260648Z 2607/2706 30008KT P6SM SCT007 BKN025
     FM260900 30007KT P6SM SCT030 BKN060
     FM261400 30007KT P6SM SCT060 SCT120=

USA.gov is the U.S. government's official web portal to all federal, state and local government web resources and services.